createdAt,value
2022-09-02T00:02:08.566Z,13.00
2022-09-02T00:04:36.462Z,13.00
2022-09-02T00:07:04.566Z,13.00
2022-09-02T00:09:32.403Z,12.90
2022-09-02T00:12:00.329Z,12.80
2022-09-02T00:14:32.054Z,12.80
2022-09-02T00:17:00.920Z,12.90
2022-09-02T00:19:31.741Z,12.90
2022-09-02T00:22:00.808Z,12.90
2022-09-02T00:24:29.049Z,12.90
2022-09-02T00:26:57.106Z,12.80
2022-09-02T00:29:25.392Z,12.70
2022-09-02T00:31:53.382Z,12.70
2022-09-02T00:34:21.745Z,12.80
2022-09-02T00:36:50.998Z,12.80
2022-09-02T00:39:18.979Z,12.70
2022-09-02T00:41:46.841Z,12.70
2022-09-02T00:44:17.359Z,12.70
2022-09-02T00:46:46.225Z,12.70
2022-09-02T00:49:18.980Z,12.70
2022-09-02T00:51:50.014Z,12.80
2022-09-02T00:54:22.883Z,12.70
2022-09-02T00:56:53.809Z,12.70
2022-09-02T00:59:27.235Z,12.60
2022-09-02T01:01:55.168Z,12.60
2022-09-02T01:04:23.143Z,12.60
2022-09-02T01:06:51.778Z,12.60
2022-09-02T01:09:21.737Z,12.60
2022-09-02T01:11:55.468Z,12.50
2022-09-02T01:14:24.067Z,12.50
2022-09-02T01:17:00.888Z,12.60
2022-09-02T01:19:35.007Z,12.50
2022-09-02T01:22:15.903Z,12.60
2022-09-02T01:24:43.712Z,12.60
2022-09-02T01:27:16.878Z,12.60
2022-09-02T01:29:44.836Z,12.60
2022-09-02T01:32:13.034Z,12.60
2022-09-02T01:34:41.812Z,12.60
2022-09-02T01:37:11.136Z,12.50
2022-09-02T01:39:38.995Z,12.50
2022-09-02T01:42:07.116Z,12.50
2022-09-02T01:44:37.620Z,12.50
2022-09-02T01:47:05.803Z,12.50
2022-09-02T01:49:35.973Z,12.50
2022-09-02T01:52:04.715Z,12.50
2022-09-02T01:54:34.019Z,12.40
2022-09-02T01:57:02.044Z,12.40
2022-09-02T01:59:30.647Z,12.40
2022-09-02T02:01:58.610Z,12.40
2022-09-02T02:04:27.626Z,12.40
2022-09-02T02:06:56.697Z,12.40
2022-09-02T02:09:24.844Z,12.30
2022-09-02T02:11:54.187Z,12.30
2022-09-02T02:14:21.992Z,12.30
2022-09-02T02:16:51.301Z,12.30
2022-09-02T02:19:19.157Z,12.20
2022-09-02T02:21:47.027Z,12.10
2022-09-02T02:24:14.994Z,12.10
2022-09-02T02:26:43.214Z,12.10
2022-09-02T02:29:12.467Z,12.20
2022-09-02T02:31:40.885Z,12.10
2022-09-02T02:34:09.933Z,12.20
2022-09-02T02:36:37.836Z,12.20
2022-09-02T02:39:09.814Z,12.20
2022-09-02T02:41:38.226Z,12.30
2022-09-02T02:44:06.709Z,12.30
2022-09-02T02:46:36.365Z,12.30
2022-09-02T02:49:05.775Z,12.30
2022-09-02T02:51:34.111Z,12.20
2022-09-02T02:54:02.399Z,12.20
2022-09-02T02:56:30.691Z,12.20
2022-09-02T02:59:00.816Z,12.20
2022-09-02T03:01:28.724Z,12.20
2022-09-02T03:03:57.893Z,12.20
2022-09-02T03:06:26.695Z,12.20
2022-09-02T03:08:55.103Z,12.20
2022-09-02T03:11:23.692Z,12.20
2022-09-02T03:13:52.182Z,12.10
2022-09-02T03:16:20.251Z,12.10
2022-09-02T03:18:48.402Z,12.10
2022-09-02T03:21:18.282Z,12.10
2022-09-02T03:23:47.355Z,12.10
2022-09-02T03:26:19.275Z,12.00
2022-09-02T03:28:49.356Z,12.10
2022-09-02T03:31:19.937Z,12.10
2022-09-02T03:33:48.213Z,12.00
2022-09-02T03:36:25.541Z,12.00
2022-09-02T03:38:53.995Z,12.00
2022-09-02T03:41:22.022Z,12.00
2022-09-02T03:43:51.158Z,12.00
2022-09-02T03:46:19.738Z,12.00
2022-09-02T03:48:50.220Z,12.00
2022-09-02T03:51:18.164Z,11.90
2022-09-02T03:53:47.398Z,11.90
2022-09-02T03:56:16.491Z,11.80
2022-09-02T03:58:49.364Z,11.80
2022-09-02T04:01:19.528Z,11.90
2022-09-02T04:03:47.747Z,11.80
2022-09-02T04:06:18.526Z,11.80
2022-09-02T04:08:48.111Z,11.80
2022-09-02T04:11:19.673Z,11.70
2022-09-02T04:13:49.313Z,11.80
2022-09-02T04:16:19.248Z,11.80
2022-09-02T04:18:47.422Z,11.80
2022-09-02T04:21:16.646Z,11.70
2022-09-02T04:23:44.555Z,11.70
2022-09-02T04:26:17.481Z,11.70
2022-09-02T04:28:45.908Z,11.80
2022-09-02T04:31:15.915Z,11.80
2022-09-02T04:33:44.443Z,11.80
2022-09-02T04:36:14.961Z,11.70
2022-09-02T04:38:43.431Z,11.70
2022-09-02T04:41:15.481Z,11.70
2022-09-02T04:43:43.605Z,11.60
2022-09-02T04:46:13.514Z,11.50
2022-09-02T04:48:44.016Z,11.50
2022-09-02T04:51:14.360Z,11.50
2022-09-02T04:53:42.683Z,11.50
2022-09-02T04:56:14.796Z,11.50
2022-09-02T04:58:45.281Z,11.60
2022-09-02T05:01:16.245Z,11.60
2022-09-02T05:03:45.331Z,11.60
2022-09-02T05:06:16.383Z,11.60
2022-09-02T05:08:47.937Z,11.70
2022-09-02T05:11:19.107Z,11.70
2022-09-02T05:13:51.452Z,11.70
2022-09-02T05:16:20.925Z,11.70
2022-09-02T05:18:51.725Z,11.70
2022-09-02T05:21:20.498Z,11.80
2022-09-02T05:23:48.417Z,11.90
2022-09-02T05:26:16.930Z,12.00
2022-09-02T05:28:46.109Z,12.00
2022-09-02T05:31:18.317Z,12.10
2022-09-02T05:33:46.480Z,12.20
2022-09-02T05:36:16.695Z,12.30
2022-09-02T05:38:46.028Z,12.30
2022-09-02T05:41:19.612Z,12.40
2022-09-02T05:43:48.236Z,12.50
2022-09-02T05:46:21.176Z,12.60
2022-09-02T05:49:07.528Z,12.70
2022-09-02T05:51:41.115Z,12.80
2022-09-02T05:54:10.902Z,12.90
2022-09-02T05:56:40.311Z,13.00
2022-09-02T05:59:13.511Z,13.00
2022-09-02T06:01:42.986Z,13.00
2022-09-02T06:04:11.078Z,13.00
2022-09-02T06:06:39.482Z,13.10
2022-09-02T06:09:09.307Z,13.20
2022-09-02T06:11:40.228Z,13.30
2022-09-02T06:14:08.750Z,13.40
2022-09-02T06:16:37.375Z,13.30
2022-09-02T06:19:06.627Z,13.50
2022-09-02T06:21:34.961Z,13.50
2022-09-02T06:24:05.247Z,13.50
2022-09-02T06:26:33.162Z,13.70
2022-09-02T06:29:01.339Z,13.70
2022-09-02T06:31:29.323Z,13.70
2022-09-02T06:34:03.611Z,13.80
2022-09-02T06:36:33.393Z,13.90
2022-09-02T06:39:02.005Z,13.80
2022-09-02T06:41:33.448Z,13.90
2022-09-02T06:44:07.081Z,13.80
2022-09-02T06:46:38.198Z,13.90
2022-09-02T06:49:08.131Z,14.10
2022-09-02T06:51:39.616Z,14.20
2022-09-02T06:54:09.719Z,14.20
2022-09-02T06:56:37.926Z,14.40
2022-09-02T06:59:07.444Z,14.50
2022-09-02T07:01:36.830Z,14.60
2022-09-02T07:04:23.278Z,14.60
2022-09-02T07:06:55.782Z,14.60
2022-09-02T07:09:31.582Z,14.70
2022-09-02T07:12:04.287Z,14.70
2022-09-02T07:14:33.427Z,14.80
2022-09-02T07:17:01.257Z,15.00
2022-09-02T07:19:29.082Z,15.00
2022-09-02T07:21:58.377Z,15.00
2022-09-02T07:24:26.239Z,15.20
2022-09-02T07:26:55.762Z,15.20
2022-09-02T07:29:24.449Z,15.20
2022-09-02T07:31:52.746Z,15.30
2022-09-02T07:34:20.912Z,15.40
2022-09-02T07:36:49.450Z,15.50
2022-09-02T07:39:20.754Z,15.70
2022-09-02T07:41:51.065Z,15.80
2022-09-02T07:44:20.346Z,15.90
2022-09-02T07:46:48.585Z,16.00
2022-09-02T07:49:20.883Z,16.10
2022-09-02T07:51:52.142Z,16.00
2022-09-02T07:54:24.693Z,16.10
2022-09-02T07:56:52.684Z,16.10
2022-09-02T07:59:22.198Z,16.30
2022-09-02T08:01:51.714Z,16.30
2022-09-02T08:04:21.158Z,16.40
2022-09-02T08:06:49.039Z,16.60
2022-09-02T08:09:16.997Z,16.70
2022-09-02T08:11:49.883Z,16.90
2022-09-02T08:14:21.593Z,16.90
2022-09-02T08:16:49.789Z,17.10
2022-09-02T08:19:18.051Z,17.10
2022-09-02T08:21:46.246Z,17.10
2022-09-02T08:24:14.269Z,17.30
2022-09-02T08:26:42.246Z,17.30
2022-09-02T08:29:11.652Z,17.30
2022-09-02T08:31:39.970Z,17.40
2022-09-02T08:34:07.886Z,17.50
2022-09-02T08:36:35.774Z,17.80
2022-09-02T08:39:05.243Z,17.90
2022-09-02T08:41:38.495Z,17.80
2022-09-02T08:44:07.649Z,17.90
2022-09-02T08:46:36.834Z,18.10
2022-09-02T08:49:10.017Z,18.40
2022-09-02T08:51:43.413Z,18.50
2022-09-02T08:54:16.806Z,18.60
2022-09-02T08:56:44.807Z,18.80
2022-09-02T08:59:15.042Z,18.80
2022-09-02T09:01:51.742Z,18.80
2022-09-02T09:04:32.019Z,18.90
2022-09-02T09:07:17.453Z,19.00
2022-09-02T09:09:56.390Z,19.20
2022-09-02T09:12:35.618Z,19.30
2022-09-02T09:15:09.993Z,19.30
2022-09-02T09:17:46.235Z,19.40
2022-09-02T09:20:20.360Z,19.50
2022-09-02T09:22:50.642Z,19.50
2022-09-02T09:25:19.613Z,19.30
2022-09-02T09:27:47.418Z,19.40
2022-09-02T09:30:15.843Z,19.60
2022-09-02T09:32:48.633Z,19.70
2022-09-02T09:35:18.004Z,19.80
2022-09-02T09:37:48.026Z,19.70
2022-09-02T09:40:26.629Z,19.80
2022-09-02T09:42:57.750Z,19.90
2022-09-02T09:45:32.652Z,19.80
2022-09-02T09:48:20.070Z,19.80
2022-09-02T09:50:49.432Z,19.80
2022-09-02T09:53:22.167Z,20.00
2022-09-02T09:55:55.487Z,20.10
2022-09-02T09:58:27.183Z,20.20
2022-09-02T10:00:56.354Z,20.10
2022-09-02T10:03:32.996Z,20.10
2022-09-02T10:06:18.944Z,20.00
2022-09-02T10:08:52.903Z,20.10
2022-09-02T10:11:26.989Z,20.10
2022-09-02T10:14:00.878Z,19.90
2022-09-02T10:16:45.946Z,19.90
2022-09-02T10:19:24.899Z,19.90
2022-09-02T10:22:18.932Z,20.00
2022-09-02T10:24:59.983Z,19.80
2022-09-02T10:27:38.620Z,20.10
2022-09-02T10:30:10.135Z,20.20
2022-09-02T10:32:56.571Z,20.30
2022-09-02T10:35:35.825Z,20.30
2022-09-02T10:38:22.850Z,20.40
2022-09-02T10:40:56.005Z,20.40
2022-09-02T10:43:36.089Z,20.30
2022-09-02T10:46:10.448Z,20.30
2022-09-02T10:48:50.057Z,20.40
2022-09-02T10:51:29.490Z,20.60
2022-09-02T10:54:13.867Z,20.40
2022-09-02T10:56:46.659Z,20.10
2022-09-02T10:59:20.779Z,20.30
2022-09-02T11:01:53.490Z,20.50
2022-09-02T11:04:27.886Z,20.40
2022-09-02T11:07:03.009Z,20.40
2022-09-02T11:09:36.920Z,20.50
2022-09-02T11:12:09.366Z,20.70
2022-09-02T11:14:44.182Z,20.80
2022-09-02T11:17:21.014Z,20.80
2022-09-02T11:19:56.786Z,20.90
2022-09-02T11:22:29.678Z,20.70
2022-09-02T11:25:04.354Z,20.80
2022-09-02T11:27:45.112Z,20.80
2022-09-02T11:30:16.243Z,20.80
2022-09-02T11:32:48.226Z,20.80
2022-09-02T11:35:21.496Z,20.70
2022-09-02T11:37:53.865Z,20.80
2022-09-02T11:40:34.907Z,21.00
2022-09-02T11:43:26.499Z,21.10
2022-09-02T11:46:08.580Z,21.20
2022-09-02T11:49:10.820Z,21.30
2022-09-02T11:51:55.499Z,21.20
2022-09-02T11:54:28.384Z,21.10
2022-09-02T11:57:01.648Z,21.10
2022-09-02T12:00:05.178Z,21.20
2022-09-02T12:02:38.403Z,21.10
2022-09-02T12:05:43.658Z,20.90
2022-09-02T12:08:13.637Z,20.80
2022-09-02T12:11:05.981Z,20.90
2022-09-02T12:13:37.685Z,21.10
2022-09-02T12:16:38.778Z,21.30
2022-09-02T12:19:29.543Z,21.40
2022-09-02T12:22:41.759Z,21.40
2022-09-02T12:25:38.046Z,21.40
2022-09-02T12:28:25.452Z,21.30
2022-09-02T12:31:17.504Z,21.20
2022-09-02T12:33:51.559Z,21.10
2022-09-02T12:36:47.167Z,21.10
2022-09-02T12:39:55.680Z,21.30
2022-09-02T12:42:30.964Z,21.40
2022-09-02T12:45:07.582Z,21.50
2022-09-02T12:47:48.002Z,21.50
2022-09-02T12:50:26.106Z,21.60
2022-09-02T12:53:25.386Z,21.60
2022-09-02T12:55:57.907Z,21.40
2022-09-02T12:58:26.399Z,21.50
2022-09-02T13:01:03.565Z,21.20
2022-09-02T13:03:49.439Z,21.20
2022-09-02T13:06:28.118Z,21.10
2022-09-02T13:09:16.885Z,21.10
2022-09-02T13:12:14.871Z,21.20
2022-09-02T13:14:58.346Z,21.30
2022-09-02T13:17:46.198Z,21.30
2022-09-02T13:20:43.610Z,21.30
2022-09-02T13:23:47.575Z,21.30
2022-09-02T13:26:48.897Z,21.20
2022-09-02T13:29:46.147Z,21.50
2022-09-02T13:32:16.685Z,21.20
2022-09-02T13:34:48.683Z,21.10
2022-09-02T13:37:33.774Z,21.20
2022-09-02T13:40:06.266Z,21.10
2022-09-02T13:42:34.120Z,21.10
2022-09-02T13:45:13.512Z,21.10
2022-09-02T13:47:44.726Z,21.20
2022-09-02T13:50:15.932Z,21.10
2022-09-02T13:53:34.642Z,21.20
2022-09-02T13:55:34.766Z,21.20
2022-09-02T13:58:05.279Z,21.20
2022-09-02T14:00:36.043Z,21.20
2022-09-02T14:03:07.772Z,21.00
2022-09-02T14:05:42.887Z,20.90
2022-09-02T14:08:16.384Z,20.80
2022-09-02T14:10:45.927Z,20.90
2022-09-02T14:13:14.351Z,21.00
2022-09-02T14:15:42.229Z,20.90
2022-09-02T14:18:18.592Z,20.80
2022-09-02T14:21:01.733Z,20.80
2022-09-02T14:23:33.313Z,20.70
2022-09-02T14:26:02.795Z,20.70
2022-09-02T14:28:32.848Z,20.80
2022-09-02T14:31:02.829Z,20.80
2022-09-02T14:33:42.628Z,20.90
2022-09-02T14:36:31.979Z,20.80
2022-09-02T14:39:13.130Z,20.80
2022-09-02T14:41:47.174Z,20.80
2022-09-02T14:44:19.370Z,20.70
2022-09-02T14:46:49.400Z,20.70
2022-09-02T14:49:22.395Z,20.50
2022-09-02T14:51:54.802Z,20.50
2022-09-02T14:54:40.559Z,20.60
2022-09-02T14:57:22.812Z,20.60
2022-09-02T14:59:51.470Z,20.60
2022-09-02T15:02:32.083Z,20.70
2022-09-02T15:05:01.636Z,20.60
2022-09-02T15:07:31.282Z,20.60
2022-09-02T15:09:59.546Z,20.60
2022-09-02T15:12:30.563Z,20.50
2022-09-02T15:14:59.181Z,20.50
2022-09-02T15:17:30.562Z,20.50
2022-09-02T15:19:58.678Z,20.50
2022-09-02T15:22:27.362Z,20.50
2022-09-02T15:24:58.356Z,20.50
2022-09-02T15:27:26.314Z,20.40
2022-09-02T15:29:54.195Z,20.40
2022-09-02T15:32:22.066Z,20.40
2022-09-02T15:34:49.888Z,20.60
2022-09-02T15:37:17.760Z,20.80
2022-09-02T15:39:45.793Z,20.80
2022-09-02T15:42:15.314Z,20.70
2022-09-02T15:44:43.727Z,20.70
2022-09-02T15:47:11.567Z,20.60
2022-09-02T15:49:39.425Z,20.60
2022-09-02T15:52:08.231Z,20.60
2022-09-02T15:54:36.104Z,20.40
2022-09-02T15:57:05.118Z,20.40
2022-09-02T15:59:34.491Z,20.40
2022-09-02T16:02:02.420Z,20.40
2022-09-02T16:04:30.543Z,20.40
2022-09-02T16:06:58.475Z,20.30
2022-09-02T16:09:26.588Z,20.40
2022-09-02T16:11:55.970Z,20.30
2022-09-02T16:14:25.266Z,20.30
2022-09-02T16:16:56.098Z,20.20
2022-09-02T16:19:29.660Z,20.20
2022-09-02T16:21:58.732Z,20.10
2022-09-02T16:24:27.762Z,20.00
2022-09-02T16:26:55.578Z,19.90
2022-09-02T16:29:26.854Z,19.90
2022-09-02T16:34:46.662Z,19.80
2022-09-02T16:37:14.463Z,19.70
2022-09-02T16:39:42.533Z,19.70
2022-09-02T16:42:10.543Z,19.60
2022-09-02T16:44:38.683Z,19.60
2022-09-02T16:47:07.974Z,19.50
2022-09-02T16:49:35.839Z,19.60
2022-09-02T16:52:04.066Z,19.50
2022-09-02T16:54:33.643Z,19.40
2022-09-02T16:57:04.855Z,19.40
2022-09-02T16:59:32.839Z,19.40
2022-09-02T17:02:00.723Z,19.40
2022-09-02T17:04:30.083Z,19.30
2022-09-02T17:06:57.959Z,19.30
2022-09-02T17:09:25.770Z,19.30
2022-09-02T17:11:54.157Z,19.20
2022-09-02T17:14:22.540Z,19.20
2022-09-02T17:16:51.959Z,19.00
2022-09-02T17:19:22.461Z,19.00
2022-09-02T17:21:53.575Z,19.00
2022-09-02T17:24:23.673Z,19.00
2022-09-02T17:26:55.493Z,18.90
2022-09-02T17:29:48.037Z,18.90
2022-09-02T17:32:13.851Z,18.80
2022-09-02T17:34:41.839Z,18.80
2022-09-02T17:37:11.065Z,18.70
2022-09-02T17:39:38.955Z,18.60
2022-09-02T17:42:06.670Z,18.50
2022-09-02T17:44:38.290Z,18.50
2022-09-02T17:47:08.150Z,18.40
2022-09-02T17:49:37.419Z,18.40
2022-09-02T17:52:07.429Z,18.30
2022-09-02T17:54:38.366Z,18.20
2022-09-02T17:57:21.016Z,18.00
2022-09-02T18:00:00.951Z,18.00
2022-09-02T18:02:53.410Z,17.90
2022-09-02T18:05:29.053Z,17.80
2022-09-02T18:08:01.536Z,17.70
2022-09-02T18:10:35.364Z,17.60
2022-09-02T18:13:06.414Z,17.60
2022-09-02T18:15:43.480Z,17.40
2022-09-02T18:18:13.775Z,17.40
2022-09-02T18:20:43.562Z,17.30
2022-09-02T18:23:36.138Z,17.30
2022-09-02T18:26:13.751Z,17.20
2022-09-02T18:28:50.509Z,17.10
2022-09-02T18:31:33.047Z,17.00
2022-09-02T18:34:12.762Z,16.80
2022-09-02T18:36:49.429Z,16.70
2022-09-02T18:39:35.784Z,16.60
2022-09-02T18:42:16.075Z,16.50
2022-09-02T18:44:54.017Z,16.40
2022-09-02T18:47:25.306Z,16.50
2022-09-02T18:49:56.530Z,16.40
2022-09-02T18:52:28.119Z,16.40
2022-09-02T18:55:07.289Z,16.40
2022-09-02T18:57:42.324Z,16.40
2022-09-02T19:00:12.279Z,16.40
2022-09-02T19:02:49.032Z,16.30
2022-09-02T19:05:20.470Z,16.20
2022-09-02T19:08:11.886Z,16.00
2022-09-02T19:10:40.607Z,15.90
2022-09-02T19:13:09.939Z,15.90
2022-09-02T19:15:39.397Z,15.80
2022-09-02T19:18:07.435Z,15.80
2022-09-02T19:20:37.303Z,15.80
2022-09-02T19:23:07.398Z,15.70
2022-09-02T19:25:39.075Z,15.70
2022-09-02T19:28:07.103Z,15.70
2022-09-02T19:30:37.388Z,15.80
2022-09-02T19:33:08.935Z,15.90
2022-09-02T19:35:38.132Z,16.00
2022-09-02T19:38:06.304Z,16.00
2022-09-02T19:40:36.367Z,16.10
2022-09-02T19:43:07.383Z,16.10
2022-09-02T19:45:37.300Z,16.10
2022-09-02T19:48:07.883Z,16.00
2022-09-02T19:50:37.031Z,16.00
2022-09-02T19:53:04.936Z,15.90
2022-09-02T19:55:33.575Z,15.90
2022-09-02T19:58:01.732Z,15.90
2022-09-02T20:00:32.686Z,16.00
2022-09-02T20:03:03.263Z,16.00
2022-09-02T20:05:31.400Z,16.10
2022-09-02T20:07:59.326Z,16.10
2022-09-02T20:10:28.231Z,16.00
2022-09-02T20:12:58.090Z,15.90
2022-09-02T20:15:26.033Z,15.90
2022-09-02T20:17:54.161Z,15.70
2022-09-02T20:20:26.299Z,15.70
2022-09-02T20:22:55.658Z,15.60
2022-09-02T20:25:30.047Z,15.60
2022-09-02T20:28:08.806Z,15.50
2022-09-02T20:30:39.522Z,15.50
2022-09-02T20:33:16.299Z,15.40
2022-09-02T20:35:59.778Z,15.30
2022-09-02T20:38:40.407Z,15.30
2022-09-02T20:41:13.279Z,15.40
2022-09-02T20:44:13.131Z,15.40
2022-09-02T20:46:54.046Z,15.30
2022-09-02T20:49:36.469Z,15.30
2022-09-02T20:52:13.184Z,15.20
2022-09-02T20:54:45.858Z,15.20
2022-09-02T20:57:32.418Z,15.10
2022-09-02T21:00:07.043Z,15.10
2022-09-02T21:02:39.280Z,15.00
2022-09-02T21:05:12.646Z,15.00
2022-09-02T21:07:45.443Z,15.00
2022-09-02T21:10:20.186Z,14.90
2022-09-02T21:12:53.796Z,14.90
2022-09-02T21:15:30.426Z,14.90
2022-09-02T21:18:04.633Z,14.90
2022-09-02T21:20:43.637Z,14.80
2022-09-02T21:23:21.286Z,14.80
2022-09-02T21:25:55.815Z,14.70
2022-09-02T21:28:28.922Z,14.50
2022-09-02T21:31:03.901Z,14.50
2022-09-02T21:33:34.696Z,14.50
2022-09-02T21:36:05.508Z,14.50
2022-09-02T21:38:37.909Z,14.40
2022-09-02T21:41:30.094Z,14.30
2022-09-02T21:44:08.985Z,14.30
2022-09-02T21:46:47.076Z,14.40
2022-09-02T21:49:27.143Z,14.40
2022-09-02T21:52:04.187Z,14.40
2022-09-02T21:54:49.716Z,14.40
2022-09-02T21:57:33.432Z,14.40
2022-09-02T22:00:03.534Z,14.40
2022-09-02T22:02:41.244Z,14.40
2022-09-02T22:05:16.806Z,14.30
2022-09-02T22:07:50.086Z,14.30
2022-09-02T22:10:28.142Z,14.30
2022-09-02T22:13:03.275Z,14.30
2022-09-02T22:15:42.437Z,14.40
2022-09-02T22:18:20.161Z,14.30
2022-09-02T22:20:50.710Z,14.30
2022-09-02T22:23:26.131Z,14.30
2022-09-02T22:25:56.467Z,14.40
2022-09-02T22:28:32.228Z,14.30
2022-09-02T22:31:08.662Z,14.30
2022-09-02T22:33:45.384Z,14.30
2022-09-02T22:36:26.479Z,14.30
2022-09-02T22:38:58.014Z,14.40
2022-09-02T22:41:33.054Z,14.40
2022-09-02T22:44:12.535Z,14.40
2022-09-02T22:47:05.291Z,14.50
2022-09-02T22:49:56.350Z,14.50
2022-09-02T22:52:49.406Z,14.50
2022-09-02T22:55:25.375Z,14.70
2022-09-02T22:58:04.870Z,14.70
2022-09-02T23:00:38.702Z,14.70
2022-09-02T23:03:15.063Z,14.70
2022-09-02T23:06:02.055Z,14.70
2022-09-02T23:08:31.568Z,14.60
2022-09-02T23:11:06.649Z,14.70
2022-09-02T23:13:53.237Z,14.60
2022-09-02T23:16:28.038Z,14.60
2022-09-02T23:19:09.550Z,14.50
2022-09-02T23:21:47.068Z,14.50
2022-09-02T23:24:22.667Z,14.50
2022-09-02T23:27:03.442Z,14.40
2022-09-02T23:29:34.004Z,14.40
2022-09-02T23:32:32.115Z,14.40
2022-09-02T23:35:17.269Z,14.40
2022-09-02T23:38:00.058Z,14.30
2022-09-02T23:40:32.164Z,14.30
2022-09-02T23:43:01.580Z,14.20
2022-09-02T23:45:32.739Z,14.20
2022-09-02T23:48:11.787Z,14.30
2022-09-02T23:50:50.678Z,14.30
2022-09-02T23:53:24.823Z,14.30
2022-09-02T23:56:03.788Z,14.20
2022-09-02T23:58:48.975Z,14.30
